New Empire, Nevada
Current Conditions -  °F | °C
As of 6:35 AM on Tuesday 27 Jan 2015 (Local Time) from KCXP Reporting Station
Overcast Overcast  
Wind Chill: 38°   Ceiling: 6000
Heat Index: 41°   Visibility: 10mi
Dew Point: 27°   Wind: 5mph
Humidity: 57%   Direction: 300°WNW
Pressure: 30.12"   Gusts: NA
Location:  39.1386°N, 119.659°W
Report Text: KCXP 271435Z AUTO 30004KT 10SM FEW042 BKN060 OVC070 05/M03 A3012 RMK AO2
Loading
Personal Weather Stations






























Interactive Weather Map New forecast layout! Learn more

10-Day Weather Forecast

Advertisements
Track Severe Weather on mobile